Anna Noli — IZEL — position and weather

sailwx.info

Track history (hours):
 
Tides and Currents Weather Stations Pressure Air Temp Water Temp Dewpoint Dewpoint Depression Visibility Wind Speed Wind Dir Waves Ship Positions

Anna Noli

Last reported at 2017-Jan-20 19:22 UTC. Time now 2017-Jan-20 20:13 UTC.
Position N 44°16' E 008°27'.

Length 32 m.

Type: Tug. MMSI: 247046500.

Date/timePositionNaut miles runAvg speedWind from/ knotsBaromVisibWave heightAir tempDewpointWater temp
2017-Jan-20 19:22N 44°16' E 008°27'0 0.0
2017-Jan-20 18:28N 44°16' E 008°27'0 0.0
2017-Jan-20 17:22N 44°16' E 008°27'0 0.0
2017-Jan-20 16:22N 44°16' E 008°27'1 1.0
2017-Jan-20 15:28N 44°17' E 008°28'0 0.2
2017-Jan-20 14:29N 44°17' E 008°28'1 1.1
2017-Jan-20 13:30N 44°16' E 008°27'3 3.2
2017-Jan-20 12:29N 44°19' E 008°29'0 0.0
2017-Jan-20 11:32N 44°19' E 008°29'0 0.0
2017-Jan-20 10:29N 44°19' E 008°29'0 0.0
2017-Jan-20 09:29N 44°19' E 008°29'0 0.0
2017-Jan-20 08:32N 44°19' E 008°29'0 0.0
2017-Jan-20 07:29N 44°19' E 008°29'0 0.0
2017-Jan-20 06:32N 44°19' E 008°29'0 0.4
2017-Jan-20 05:32N 44°19' E 008°30'0 0.4
2017-Jan-20 04:31N 44°19' E 008°29'0 0.0
2017-Jan-20 03:31N 44°19' E 008°29'0 0.0
2017-Jan-20 02:31N 44°19' E 008°29'0 0.0
2017-Jan-20 01:31N 44°19' E 008°29'0 0.0
2017-Jan-20 00:31N 44°19' E 008°29'0 0.0
2017-Jan-19 23:31N 44°19' E 008°29'0 0.0
2017-Jan-19 22:31N 44°19' E 008°29'0 0.0
2017-Jan-19 21:31N 44°19' E 008°29'0 0.0
2017-Jan-19 20:31N 44°19' E 008°29'0 0.0
2017-Jan-19 19:31N 44°19' E 008°29'0 0.0
2017-Jan-19 18:31N 44°19' E 008°29'0 0.0
2017-Jan-19 17:31N 44°19' E 008°29'0 0.0
2017-Jan-19 16:31N 44°19' E 008°29'0 0.0
2017-Jan-19 15:31N 44°19' E 008°29'0 0.0
2017-Jan-19 14:31N 44°19' E 008°29'1 1.3
2017-Jan-19 13:33N 44°17' E 008°29'2 2.0
2017-Jan-19 12:33N 44°16' E 008°27'1 0.6
2017-Jan-19 11:31N 44°16' E 008°27'0 0.4
2017-Jan-19 10:28N 44°17' E 008°27'0 0.0
2017-Jan-19 09:31N 44°17' E 008°28'1 1.2
2017-Jan-19 08:33N 44°17' E 008°29'1 1.4
2017-Jan-19 07:31N 44°19' E 008°29'0 0.0
2017-Jan-19 06:31N 44°19' E 008°29'0 0.0
2017-Jan-19 05:31N 44°19' E 008°29'0 0.0
2017-Jan-19 04:31N 44°19' E 008°29'0 0.0
2017-Jan-19 03:31N 44°19' E 008°29'0 0.0
2017-Jan-19 02:31N 44°19' E 008°29'0 0.0
2017-Jan-19 01:31N 44°19' E 008°29'0 0.0
2017-Jan-19 00:31N 44°19' E 008°29'0 0.0
2017-Jan-18 23:31N 44°19' E 008°29'0 0.0
2017-Jan-18 22:31N 44°19' E 008°29'0 0.0
2017-Jan-18 21:31N 44°19' E 008°29'0 0.0
2017-Jan-18 20:31N 44°19' E 008°29'0 0.0
2017-Jan-18 19:31N 44°19' E 008°29'0 0.0
2017-Jan-18 18:31N 44°19' E 008°29'0 0.5
2017-Jan-18 17:33N 44°19' E 008°30'0 0.2
2017-Jan-18 16:28N 44°19' E 008°30'0 0.3
2017-Jan-18 15:31N 44°19' E 008°30'1 0.8
2017-Jan-18 14:33N 44°18' E 008°30'3 2.6
2017-Jan-18 13:34N 44°16' E 008°28'3 2.7
2017-Jan-18 12:30N 44°19' E 008°29'0 0.0
2017-Jan-18 11:30N 44°19' E 008°29'1 0.9
2017-Jan-18 10:33N 44°19' E 008°30'1 0.8
2017-Jan-18 09:32N 44°19' E 008°29'0 0.4
2017-Jan-18 08:33N 44°19' E 008°30'0 0.1
2017-Jan-18 07:30N 44°19' E 008°30'0 0.3
2017-Jan-18 06:33N 44°19' E 008°30'0 0.1
2017-Jan-18 05:31N 44°19' E 008°30'1 0.9
2017-Jan-18 04:33N 44°19' E 008°29'0 0.0
2017-Jan-18 03:30N 44°19' E 008°29'0 0.1
2017-Jan-18 02:33N 44°19' E 008°29'0 0.3
2017-Jan-18 01:31N 44°19' E 008°30'1 0.6
2017-Jan-18 00:33N 44°19' E 008°30'1 0.9
2017-Jan-17 23:33N 44°19' E 008°29'0 0.0
2017-Jan-17 22:33N 44°19' E 008°29'0 0.0
2017-Jan-17 21:33N 44°19' E 008°29'0 0.0
2017-Jan-17 20:33N 44°19' E 008°29'0 0.0
2017-Jan-17 19:33N 44°19' E 008°29'0 0.0
2017-Jan-17 18:28N 44°19' E 008°29'0 0.0
2017-Jan-17 17:28N 44°19' E 008°29'0 0.2
2017-Jan-17 16:28N 44°19' E 008°29'0 0.2
2017-Jan-17 15:28N 44°19' E 008°29'0 0.0
2017-Jan-17 14:28N 44°19' E 008°29'0 0.0
2017-Jan-17 13:28N 44°19' E 008°29'0 0.0
2017-Jan-17 12:28N 44°19' E 008°29'0 0.0
2017-Jan-17 11:28N 44°19' E 008°29'0 0.0
2017-Jan-17 10:28N 44°19' E 008°29'0 0.0
2017-Jan-17 09:31N 44°19' E 008°29'0 0.0
2017-Jan-17 08:28N 44°19' E 008°29'0 0.0
2017-Jan-17 07:31N 44°19' E 008°29'0 0.0
2017-Jan-17 06:31N 44°19' E 008°29'0 0.0
2017-Jan-17 05:28N 44°19' E 008°29'0 0.0
2017-Jan-17 04:28N 44°19' E 008°29'0 0.0
2017-Jan-17 03:28N 44°19' E 008°29'0 0.0
2017-Jan-17 02:28N 44°19' E 008°29'0 0.0
2017-Jan-17 01:28N 44°19' E 008°29'0 0.0
2017-Jan-17 00:28N 44°19' E 008°29'3 3.5
2017-Jan-16 23:33N 44°16' E 008°27'0 0.0
2017-Jan-16 22:33N 44°16' E 008°27'0 0.0
2017-Jan-16 21:33N 44°16' E 008°27'0 0.0
2017-Jan-16 20:33N 44°16' E 008°27'0 0.0
2017-Jan-16 19:33N 44°16' E 008°27'0 0.0
2017-Jan-16 18:33N 44°16' E 008°27'0 0.0
2017-Jan-16 17:33N 44°16' E 008°27'0 0.0
2017-Jan-16 16:33N 44°16' E 008°27'0 0.0
2017-Jan-16 15:33N 44°16' E 008°27'0 0.0
2017-Jan-16 14:27N 44°16' E 008°27'0 0.0
2017-Jan-16 13:33N 44°16' E 008°27'0 0.0
2017-Jan-16 12:33N 44°16' E 008°27'0 0.0
2017-Jan-16 11:27N 44°16' E 008°27'0 0.0
2017-Jan-16 10:33N 44°16' E 008°27'0 0.0
2017-Jan-16 09:33N 44°16' E 008°27'0 0.0
2017-Jan-16 08:30N 44°16' E 008°27'0 0.0
2017-Jan-16 07:33N 44°16' E 008°27'0 0.0
2017-Jan-16 06:33N 44°16' E 008°27'0 0.3
2017-Jan-16 05:33N 44°16' E 008°27'0 0.3
2017-Jan-16 04:29N 44°16' E 008°27'0 0.0
2017-Jan-16 03:29N 44°16' E 008°27'0 0.0
2017-Jan-16 02:29N 44°16' E 008°27'0 0.0
2017-Jan-16 01:29N 44°16' E 008°27'0 0.0
2017-Jan-16 00:29N 44°16' E 008°27'0 0.0
2017-Jan-15 23:29N 44°16' E 008°27'0 0.0
2017-Jan-15 22:29N 44°16' E 008°27'0 0.0
2017-Jan-15 21:29N 44°16' E 008°27'0 0.0
2017-Jan-15 20:29N 44°16' E 008°27'0 0.0
2017-Jan-15 19:29N 44°16' E 008°27'0 0.0
2017-Jan-15 18:29N 44°16' E 008°27'0 0.0
2017-Jan-15 17:29N 44°16' E 008°27'4 3.8
2017-Jan-15 16:33N 44°19' E 008°30'3 3.3
2017-Jan-15 15:33N 44°16' E 008°27'0 0.3
2017-Jan-15 14:29N 44°16' E 008°27'0 0.0
2017-Jan-15 13:29N 44°16' E 008°27'0 0.0
2017-Jan-15 12:23N 44°16' E 008°27'0 0.0
2017-Jan-15 11:29N 44°16' E 008°27'0 0.0
2017-Jan-15 10:32N 44°16' E 008°27'0 0.0
2017-Jan-15 09:32N 44°16' E 008°27'0 0.0
2017-Jan-15 08:29N 44°16' E 008°27'0 0.0
2017-Jan-15 07:32N 44°16' E 008°27'0 0.0
2017-Jan-15 06:29N 44°16' E 008°27'0 0.0
2017-Jan-15 05:23N 44°16' E 008°27'0 0.0
2017-Jan-15 04:29N 44°16' E 008°27'0 0.0
2017-Jan-15 03:29N 44°16' E 008°27'0 0.0
2017-Jan-15 02:29N 44°16' E 008°27'0 0.0
2017-Jan-15 01:29N 44°16' E 008°27'0 0.0
2017-Jan-15 00:29N 44°16' E 008°27'4 4.4
2017-Jan-14 23:33N 44°19' E 008°31'4 3.8
2017-Jan-14 22:29N 44°16' E 008°27'0 0.0
2017-Jan-14 21:29N 44°16' E 008°27'0 0.0
2017-Jan-14 20:29N 44°16' E 008°27'0 0.0
2017-Jan-14 19:29N 44°16' E 008°27'4 4.2
2017-Jan-14 18:33N 44°19' E 008°30'0 0.3
2017-Jan-14 17:34N 44°19' E 008°30'0 0.2
2017-Jan-14 16:33N 44°19' E 008°30'0 0.5
2017-Jan-14 15:30N 44°19' E 008°29'0 0.0
2017-Jan-14 14:33N 44°19' E 008°29'0 0.0
2017-Jan-14 13:33N 44°19' E 008°29'0 0.0
2017-Jan-14 12:33N 44°19' E 008°29'0 0.0
2017-Jan-14 11:33N 44°19' E 008°29'0 0.0
2017-Jan-14 10:33N 44°19' E 008°29'0 0.0
2017-Jan-14 09:33N 44°19' E 008°29'0 0.0
2017-Jan-14 08:33N 44°19' E 008°29'0 0.0
2017-Jan-14 07:33N 44°19' E 008°29'0 0.0
2017-Jan-14 06:33N 44°19' E 008°29'0 0.0
2017-Jan-14 05:33N 44°19' E 008°29'0 0.0
2017-Jan-14 04:33N 44°19' E 008°29'0 0.0
2017-Jan-14 03:33N 44°19' E 008°29'0 0.0
2017-Jan-13 23:33N 44°19' E 008°29'0 0.0
2017-Jan-13 22:33N 44°19' E 008°29'0 0.0
2017-Jan-13 21:33N 44°19' E 008°29'0 0.0
2017-Jan-13 20:33N 44°19' E 008°29'0 0.0
2017-Jan-13 19:33N 44°19' E 008°29'0 0.0
2017-Jan-13 18:33N 44°19' E 008°29'0 0.0
2017-Jan-13 17:33N 44°19' E 008°29'0 0.0
2017-Jan-13 16:33N 44°19' E 008°29'3 3.2
2017-Jan-13 15:32N 44°16' E 008°27'0 0.0
2017-Jan-13 14:32N 44°16' E 008°27'0 0.3
2017-Jan-13 13:34N 44°16' E 008°27'3 3.1
2017-Jan-13 12:32N 44°19' E 008°29'0 0.0
2017-Jan-13 11:32N 44°19' E 008°29'0 0.0
2017-Jan-13 10:32N 44°19' E 008°29'0 0.0
2017-Jan-13 09:32N 44°19' E 008°29'0 0.0
2017-Jan-13 08:20N 44°19' E 008°29'0 0.0
2017-Jan-13 07:32N 44°19' E 008°29'3 2.9
2017-Jan-13 06:33N 44°16' E 008°27'2 1.6
2017-Jan-13 05:33N 44°17' E 008°29'1 1.3
2017-Jan-13 04:32N 44°19' E 008°29'0 0.0
2017-Jan-13 03:32N 44°19' E 008°29'0 0.0
2017-Jan-13 02:32N 44°19' E 008°29'0 0.0
2017-Jan-13 01:32N 44°19' E 008°29'0 0.0
2017-Jan-13 00:32N 44°19' E 008°29'0 0.0
2017-Jan-12 23:32N 44°19' E 008°29'0 0.0
2017-Jan-12 22:32N 44°19' E 008°29'0 0.0
2017-Jan-12 21:32N 44°19' E 008°29'0 0.0
2017-Jan-12 20:32N 44°19' E 008°29'0 0.0
2017-Jan-12 19:32N 44°19' E 008°29'0 0.0
2017-Jan-12 18:32N 44°19' E 008°29'0 0.0
2017-Jan-12 17:32N 44°19' E 008°29'0 0.0
2017-Jan-12 16:32N 44°19' E 008°29'0 0.0
2017-Jan-12 15:32N 44°19' E 008°29'0 0.0
2017-Jan-12 14:32N 44°19' E 008°29'0 0.0
2017-Jan-12 13:32N 44°19' E 008°29'3 3.2
2017-Jan-12 12:32N 44°16' E 008°27'0 0.2
2017-Jan-12 11:31N 44°16' E 008°27'0 0.2
2017-Jan-12 10:31N 44°16' E 008°27'0 0.0
2017-Jan-12 09:31N 44°16' E 008°27'0 0.0
2017-Jan-12 08:31N 44°16' E 008°27'0 0.0
2017-Jan-12 07:31N 44°16' E 008°27'0 0.0
2017-Jan-12 06:25N 44°16' E 008°27'0 0.0
2017-Jan-12 05:31N 44°16' E 008°27'0 0.0
2017-Jan-12 04:31N 44°16' E 008°27'0 0.0
2017-Jan-12 03:31N 44°16' E 008°27'0 0.0
2017-Jan-12 02:31N 44°16' E 008°27'0 0.0
2017-Jan-12 01:31N 44°16' E 008°27'0 0.0
2017-Jan-12 00:31N 44°16' E 008°27'0 0.0
2017-Jan-11 23:28N 44°16' E 008°27'0 0.0
2017-Jan-11 22:31N 44°16' E 008°27'0 0.0
2017-Jan-11 21:31N 44°16' E 008°27'0 0.0
2017-Jan-11 20:31N 44°16' E 008°27'0 0.0
2017-Jan-11 19:31N 44°16' E 008°27'0 0.0
2017-Jan-11 18:31N 44°16' E 008°27'0 0.0
2017-Jan-11 17:25N 44°16' E 008°27'0 0.0
2017-Jan-11 16:31N 44°16' E 008°27'0 0.0
2017-Jan-11 15:31N 44°16' E 008°27'0 0.0
2017-Jan-11 14:31N 44°16' E 008°27'0 0.0
2017-Jan-11 13:31N 44°16' E 008°27'0 0.0
2017-Jan-11 12:31N 44°16' E 008°27'0 0.0
2017-Jan-11 11:31N 44°16' E 008°27'0 0.0
2017-Jan-11 10:31N 44°16' E 008°27'0 0.0
2017-Jan-11 09:31N 44°16' E 008°27'0 0.0
2017-Jan-11 08:31N 44°16' E 008°27'0 0.0
2017-Jan-11 07:31N 44°16' E 008°27'0 0.0
2017-Jan-11 06:31N 44°16' E 008°27'0 0.0
2017-Jan-11 05:31N 44°16' E 008°27'0 0.0
2017-Jan-11 04:31N 44°16' E 008°27'0 0.0
2017-Jan-11 03:31N 44°16' E 008°27'0 0.0
2017-Jan-11 02:31N 44°16' E 008°27'0 0.0
2017-Jan-11 01:31N 44°16' E 008°27'0 0.0
2017-Jan-11 00:31N 44°16' E 008°27'0 0.0
2017-Jan-10 23:31N 44°16' E 008°27'0 0.0
2017-Jan-10 22:31N 44°16' E 008°27'0 0.0
2017-Jan-10 21:31N 44°16' E 008°27'0 0.0
2017-Jan-10 20:31N 44°16' E 008°27'0 0.0
2017-Jan-10 19:31N 44°16' E 008°27'  
Track history (hours):
 
Tides and Currents Weather Stations Pressure Air Temp Water Temp Dewpoint Dewpoint Depression Visibility Wind Speed Wind Dir Waves Ship Positions

Anna Noli

Last reported at 2017-Jan-20 19:22 UTC. Time now 2017-Jan-20 20:13 UTC.
Position N 44°16' E 008°27'.

Length 32 m.

Type: Tug. MMSI: 247046500.

Date/timePositionNaut miles runAvg speedWind from/ knotsBaromVisibWave heightAir tempDewpointWater temp
2017-Jan-20 19:22N 44°16' E 008°27'0 0.0
2017-Jan-20 18:28N 44°16' E 008°27'0 0.0
2017-Jan-20 17:22N 44°16' E 008°27'0 0.0
2017-Jan-20 16:22N 44°16' E 008°27'1 1.0
2017-Jan-20 15:28N 44°17' E 008°28'0 0.2
2017-Jan-20 14:29N 44°17' E 008°28'1 1.1
2017-Jan-20 13:30N 44°16' E 008°27'3 3.2
2017-Jan-20 12:29N 44°19' E 008°29'0 0.0
2017-Jan-20 11:32N 44°19' E 008°29'0 0.0
2017-Jan-20 10:29N 44°19' E 008°29'0 0.0
2017-Jan-20 09:29N 44°19' E 008°29'0 0.0
2017-Jan-20 08:32N 44°19' E 008°29'0 0.0
2017-Jan-20 07:29N 44°19' E 008°29'0 0.0
2017-Jan-20 06:32N 44°19' E 008°29'0 0.4
2017-Jan-20 05:32N 44°19' E 008°30'0 0.4
2017-Jan-20 04:31N 44°19' E 008°29'0 0.0
2017-Jan-20 03:31N 44°19' E 008°29'0 0.0
2017-Jan-20 02:31N 44°19' E 008°29'0 0.0
2017-Jan-20 01:31N 44°19' E 008°29'0 0.0
2017-Jan-20 00:31N 44°19' E 008°29'0 0.0
2017-Jan-19 23:31N 44°19' E 008°29'0 0.0
2017-Jan-19 22:31N 44°19' E 008°29'0 0.0
2017-Jan-19 21:31N 44°19' E 008°29'0 0.0
2017-Jan-19 20:31N 44°19' E 008°29'0 0.0
2017-Jan-19 19:31N 44°19' E 008°29'0 0.0
2017-Jan-19 18:31N 44°19' E 008°29'0 0.0
2017-Jan-19 17:31N 44°19' E 008°29'0 0.0
2017-Jan-19 16:31N 44°19' E 008°29'0 0.0
2017-Jan-19 15:31N 44°19' E 008°29'0 0.0
2017-Jan-19 14:31N 44°19' E 008°29'1 1.3
2017-Jan-19 13:33N 44°17' E 008°29'2 2.0
2017-Jan-19 12:33N 44°16' E 008°27'1 0.6
2017-Jan-19 11:31N 44°16' E 008°27'0 0.4
2017-Jan-19 10:28N 44°17' E 008°27'0 0.0
2017-Jan-19 09:31N 44°17' E 008°28'1 1.2
2017-Jan-19 08:33N 44°17' E 008°29'1 1.4
2017-Jan-19 07:31N 44°19' E 008°29'0 0.0
2017-Jan-19 06:31N 44°19' E 008°29'0 0.0
2017-Jan-19 05:31N 44°19' E 008°29'0 0.0
2017-Jan-19 04:31N 44°19' E 008°29'0 0.0
2017-Jan-19 03:31N 44°19' E 008°29'0 0.0
2017-Jan-19 02:31N 44°19' E 008°29'0 0.0
2017-Jan-19 01:31N 44°19' E 008°29'0 0.0
2017-Jan-19 00:31N 44°19' E 008°29'0 0.0
2017-Jan-18 23:31N 44°19' E 008°29'0 0.0
2017-Jan-18 22:31N 44°19' E 008°29'0 0.0
2017-Jan-18 21:31N 44°19' E 008°29'0 0.0
2017-Jan-18 20:31N 44°19' E 008°29'0 0.0
2017-Jan-18 19:31N 44°19' E 008°29'0 0.0
2017-Jan-18 18:31N 44°19' E 008°29'0 0.5
2017-Jan-18 17:33N 44°19' E 008°30'0 0.2
2017-Jan-18 16:28N 44°19' E 008°30'0 0.3
2017-Jan-18 15:31N 44°19' E 008°30'1 0.8
2017-Jan-18 14:33N 44°18' E 008°30'3 2.6
2017-Jan-18 13:34N 44°16' E 008°28'3 2.7
2017-Jan-18 12:30N 44°19' E 008°29'0 0.0
2017-Jan-18 11:30N 44°19' E 008°29'1 0.9
2017-Jan-18 10:33N 44°19' E 008°30'1 0.8
2017-Jan-18 09:32N 44°19' E 008°29'0 0.4
2017-Jan-18 08:33N 44°19' E 008°30'0 0.1
2017-Jan-18 07:30N 44°19' E 008°30'0 0.3
2017-Jan-18 06:33N 44°19' E 008°30'0 0.1
2017-Jan-18 05:31N 44°19' E 008°30'1 0.9
2017-Jan-18 04:33N 44°19' E 008°29'0 0.0
2017-Jan-18 03:30N 44°19' E 008°29'0 0.1
2017-Jan-18 02:33N 44°19' E 008°29'0 0.3
2017-Jan-18 01:31N 44°19' E 008°30'1 0.6
2017-Jan-18 00:33N 44°19' E 008°30'1 0.9
2017-Jan-17 23:33N 44°19' E 008°29'0 0.0
2017-Jan-17 22:33N 44°19' E 008°29'0 0.0
2017-Jan-17 21:33N 44°19' E 008°29'0 0.0
2017-Jan-17 20:33N 44°19' E 008°29'0 0.0
2017-Jan-17 19:33N 44°19' E 008°29'0 0.0
2017-Jan-17 18:28N 44°19' E 008°29'0 0.0
2017-Jan-17 17:28N 44°19' E 008°29'0 0.2
2017-Jan-17 16:28N 44°19' E 008°29'0 0.2
2017-Jan-17 15:28N 44°19' E 008°29'0 0.0
2017-Jan-17 14:28N 44°19' E 008°29'0 0.0
2017-Jan-17 13:28N 44°19' E 008°29'0 0.0
2017-Jan-17 12:28N 44°19' E 008°29'0 0.0
2017-Jan-17 11:28N 44°19' E 008°29'0 0.0
2017-Jan-17 10:28N 44°19' E 008°29'0 0.0
2017-Jan-17 09:31N 44°19' E 008°29'0 0.0
2017-Jan-17 08:28N 44°19' E 008°29'0 0.0
2017-Jan-17 07:31N 44°19' E 008°29'0 0.0
2017-Jan-17 06:31N 44°19' E 008°29'0 0.0
2017-Jan-17 05:28N 44°19' E 008°29'0 0.0
2017-Jan-17 04:28N 44°19' E 008°29'0 0.0
2017-Jan-17 03:28N 44°19' E 008°29'0 0.0
2017-Jan-17 02:28N 44°19' E 008°29'0 0.0
2017-Jan-17 01:28N 44°19' E 008°29'0 0.0
2017-Jan-17 00:28N 44°19' E 008°29'3 3.5
2017-Jan-16 23:33N 44°16' E 008°27'0 0.0
2017-Jan-16 22:33N 44°16' E 008°27'0 0.0
2017-Jan-16 21:33N 44°16' E 008°27'0 0.0
2017-Jan-16 20:33N 44°16' E 008°27'0 0.0
2017-Jan-16 19:33N 44°16' E 008°27'0 0.0
2017-Jan-16 18:33N 44°16' E 008°27'0 0.0
2017-Jan-16 17:33N 44°16' E 008°27'0 0.0
2017-Jan-16 16:33N 44°16' E 008°27'0 0.0
2017-Jan-16 15:33N 44°16' E 008°27'0 0.0
2017-Jan-16 14:27N 44°16' E 008°27'0 0.0
2017-Jan-16 13:33N 44°16' E 008°27'0 0.0
2017-Jan-16 12:33N 44°16' E 008°27'0 0.0
2017-Jan-16 11:27N 44°16' E 008°27'0 0.0
2017-Jan-16 10:33N 44°16' E 008°27'0 0.0
2017-Jan-16 09:33N 44°16' E 008°27'0 0.0
2017-Jan-16 08:30N 44°16' E 008°27'0 0.0
2017-Jan-16 07:33N 44°16' E 008°27'0 0.0
2017-Jan-16 06:33N 44°16' E 008°27'0 0.3
2017-Jan-16 05:33N 44°16' E 008°27'0 0.3
2017-Jan-16 04:29N 44°16' E 008°27'0 0.0
2017-Jan-16 03:29N 44°16' E 008°27'0 0.0
2017-Jan-16 02:29N 44°16' E 008°27'0 0.0
2017-Jan-16 01:29N 44°16' E 008°27'0 0.0
2017-Jan-16 00:29N 44°16' E 008°27'0 0.0
2017-Jan-15 23:29N 44°16' E 008°27'0 0.0
2017-Jan-15 22:29N 44°16' E 008°27'0 0.0
2017-Jan-15 21:29N 44°16' E 008°27'0 0.0
2017-Jan-15 20:29N 44°16' E 008°27'0 0.0
2017-Jan-15 19:29N 44°16' E 008°27'0 0.0
2017-Jan-15 18:29N 44°16' E 008°27'0 0.0
2017-Jan-15 17:29N 44°16' E 008°27'4 3.8
2017-Jan-15 16:33N 44°19' E 008°30'3 3.3
2017-Jan-15 15:33N 44°16' E 008°27'0 0.3
2017-Jan-15 14:29N 44°16' E 008°27'0 0.0
2017-Jan-15 13:29N 44°16' E 008°27'0 0.0
2017-Jan-15 12:23N 44°16' E 008°27'0 0.0
2017-Jan-15 11:29N 44°16' E 008°27'0 0.0
2017-Jan-15 10:32N 44°16' E 008°27'0 0.0
2017-Jan-15 09:32N 44°16' E 008°27'0 0.0
2017-Jan-15 08:29N 44°16' E 008°27'0 0.0
2017-Jan-15 07:32N 44°16' E 008°27'0 0.0
2017-Jan-15 06:29N 44°16' E 008°27'0 0.0
2017-Jan-15 05:23N 44°16' E 008°27'0 0.0
2017-Jan-15 04:29N 44°16' E 008°27'0 0.0
2017-Jan-15 03:29N 44°16' E 008°27'0 0.0
2017-Jan-15 02:29N 44°16' E 008°27'0 0.0
2017-Jan-15 01:29N 44°16' E 008°27'0 0.0
2017-Jan-15 00:29N 44°16' E 008°27'4 4.4
2017-Jan-14 23:33N 44°19' E 008°31'4 3.8
2017-Jan-14 22:29N 44°16' E 008°27'0 0.0
2017-Jan-14 21:29N 44°16' E 008°27'0 0.0
2017-Jan-14 20:29N 44°16' E 008°27'0 0.0
2017-Jan-14 19:29N 44°16' E 008°27'4 4.2
2017-Jan-14 18:33N 44°19' E 008°30'0 0.3
2017-Jan-14 17:34N 44°19' E 008°30'0 0.2
2017-Jan-14 16:33N 44°19' E 008°30'0 0.5
2017-Jan-14 15:30N 44°19' E 008°29'0 0.0
2017-Jan-14 14:33N 44°19' E 008°29'0 0.0
2017-Jan-14 13:33N 44°19' E 008°29'0 0.0
2017-Jan-14 12:33N 44°19' E 008°29'0 0.0
2017-Jan-14 11:33N 44°19' E 008°29'0 0.0
2017-Jan-14 10:33N 44°19' E 008°29'0 0.0
2017-Jan-14 09:33N 44°19' E 008°29'0 0.0
2017-Jan-14 08:33N 44°19' E 008°29'0 0.0
2017-Jan-14 07:33N 44°19' E 008°29'0 0.0
2017-Jan-14 06:33N 44°19' E 008°29'0 0.0
2017-Jan-14 05:33N 44°19' E 008°29'0 0.0
2017-Jan-14 04:33N 44°19' E 008°29'0 0.0
2017-Jan-14 03:33N 44°19' E 008°29'0 0.0
2017-Jan-13 23:33N 44°19' E 008°29'0 0.0
2017-Jan-13 22:33N 44°19' E 008°29'0 0.0
2017-Jan-13 21:33N 44°19' E 008°29'0 0.0
2017-Jan-13 20:33N 44°19' E 008°29'0 0.0
2017-Jan-13 19:33N 44°19' E 008°29'0 0.0
2017-Jan-13 18:33N 44°19' E 008°29'0 0.0
2017-Jan-13 17:33N 44°19' E 008°29'0 0.0
2017-Jan-13 16:33N 44°19' E 008°29'3 3.2
2017-Jan-13 15:32N 44°16' E 008°27'0 0.0
2017-Jan-13 14:32N 44°16' E 008°27'0 0.3
2017-Jan-13 13:34N 44°16' E 008°27'3 3.1
2017-Jan-13 12:32N 44°19' E 008°29'0 0.0
2017-Jan-13 11:32N 44°19' E 008°29'0 0.0
2017-Jan-13 10:32N 44°19' E 008°29'0 0.0
2017-Jan-13 09:32N 44°19' E 008°29'0 0.0
2017-Jan-13 08:20N 44°19' E 008°29'0 0.0
2017-Jan-13 07:32N 44°19' E 008°29'3 2.9
2017-Jan-13 06:33N 44°16' E 008°27'2 1.6
2017-Jan-13 05:33N 44°17' E 008°29'1 1.3
2017-Jan-13 04:32N 44°19' E 008°29'0 0.0
2017-Jan-13 03:32N 44°19' E 008°29'0 0.0
2017-Jan-13 02:32N 44°19' E 008°29'0 0.0
2017-Jan-13 01:32N 44°19' E 008°29'0 0.0
2017-Jan-13 00:32N 44°19' E 008°29'0 0.0
2017-Jan-12 23:32N 44°19' E 008°29'0 0.0
2017-Jan-12 22:32N 44°19' E 008°29'0 0.0
2017-Jan-12 21:32N 44°19' E 008°29'0 0.0
2017-Jan-12 20:32N 44°19' E 008°29'0 0.0
2017-Jan-12 19:32N 44°19' E 008°29'0 0.0
2017-Jan-12 18:32N 44°19' E 008°29'0 0.0
2017-Jan-12 17:32N 44°19' E 008°29'0 0.0
2017-Jan-12 16:32N 44°19' E 008°29'0 0.0
2017-Jan-12 15:32N 44°19' E 008°29'0 0.0
2017-Jan-12 14:32N 44°19' E 008°29'0 0.0
2017-Jan-12 13:32N 44°19' E 008°29'3 3.2
2017-Jan-12 12:32N 44°16' E 008°27'0 0.2
2017-Jan-12 11:31N 44°16' E 008°27'0 0.2
2017-Jan-12 10:31N 44°16' E 008°27'0 0.0
2017-Jan-12 09:31N 44°16' E 008°27'0 0.0
2017-Jan-12 08:31N 44°16' E 008°27'0 0.0
2017-Jan-12 07:31N 44°16' E 008°27'0 0.0
2017-Jan-12 06:25N 44°16' E 008°27'0 0.0
2017-Jan-12 05:31N 44°16' E 008°27'0 0.0
2017-Jan-12 04:31N 44°16' E 008°27'0 0.0
2017-Jan-12 03:31N 44°16' E 008°27'0 0.0
2017-Jan-12 02:31N 44°16' E 008°27'0 0.0
2017-Jan-12 01:31N 44°16' E 008°27'0 0.0
2017-Jan-12 00:31N 44°16' E 008°27'0 0.0
2017-Jan-11 23:28N 44°16' E 008°27'0 0.0
2017-Jan-11 22:31N 44°16' E 008°27'0 0.0
2017-Jan-11 21:31N 44°16' E 008°27'0 0.0
2017-Jan-11 20:31N 44°16' E 008°27'0 0.0
2017-Jan-11 19:31N 44°16' E 008°27'0 0.0
2017-Jan-11 18:31N 44°16' E 008°27'0 0.0
2017-Jan-11 17:25N 44°16' E 008°27'0 0.0
2017-Jan-11 16:31N 44°16' E 008°27'0 0.0
2017-Jan-11 15:31N 44°16' E 008°27'0 0.0
2017-Jan-11 14:31N 44°16' E 008°27'0 0.0
2017-Jan-11 13:31N 44°16' E 008°27'0 0.0
2017-Jan-11 12:31N 44°16' E 008°27'0 0.0
2017-Jan-11 11:31N 44°16' E 008°27'0 0.0
2017-Jan-11 10:31N 44°16' E 008°27'0 0.0
2017-Jan-11 09:31N 44°16' E 008°27'0 0.0
2017-Jan-11 08:31N 44°16' E 008°27'0 0.0
2017-Jan-11 07:31N 44°16' E 008°27'0 0.0
2017-Jan-11 06:31N 44°16' E 008°27'0 0.0
2017-Jan-11 05:31N 44°16' E 008°27'0 0.0
2017-Jan-11 04:31N 44°16' E 008°27'0 0.0
2017-Jan-11 03:31N 44°16' E 008°27'0 0.0
2017-Jan-11 02:31N 44°16' E 008°27'0 0.0
2017-Jan-11 01:31N 44°16' E 008°27'0 0.0
2017-Jan-11 00:31N 44°16' E 008°27'0 0.0
2017-Jan-10 23:31N 44°16' E 008°27'0 0.0
2017-Jan-10 22:31N 44°16' E 008°27'0 0.0
2017-Jan-10 21:31N 44°16' E 008°27'0 0.0
2017-Jan-10 20:31N 44°16' E 008°27'0 0.0
2017-Jan-10 19:31N 44°16' E 008°27'  

Dump ship's entire track history